createdAt,value
2022-12-16T00:01:42.983Z,62.64
2022-12-16T00:04:49.496Z,63.87
2022-12-16T00:07:56.501Z,63.83
2022-12-16T00:11:07.086Z,63.32
2022-12-16T00:14:12.479Z,63.27
2022-12-16T00:17:18.750Z,63.11
2022-12-16T00:20:24.152Z,62.74
2022-12-16T00:23:32.247Z,62.81
2022-12-16T00:26:40.675Z,63.75
2022-12-16T00:29:46.924Z,63.09
2022-12-16T00:32:52.324Z,63.34
2022-12-16T00:36:00.536Z,63.45
2022-12-16T00:39:06.796Z,62.87
2022-12-16T00:42:15.767Z,63.89
2022-12-16T00:45:21.259Z,63.73
2022-12-16T00:48:27.740Z,63.38
2022-12-16T00:51:33.080Z,63.06
2022-12-16T00:54:39.476Z,64.05
2022-12-16T00:57:48.727Z,63.90
2022-12-16T01:00:55.273Z,64.03
2022-12-16T01:04:00.889Z,64.30
2022-12-16T01:07:07.372Z,64.25
2022-12-16T01:10:15.267Z,64.47
2022-12-16T01:13:27.357Z,63.85
2022-12-16T01:16:32.879Z,63.79
2022-12-16T01:19:39.182Z,63.85
2022-12-16T01:22:45.196Z,64.83
2022-12-16T01:26:01.144Z,63.88
2022-12-16T01:29:09.498Z,64.75
2022-12-16T01:32:17.096Z,64.18
2022-12-16T01:35:51.925Z,64.30
2022-12-16T01:38:50.460Z,65.58
2022-12-16T01:41:56.546Z,64.76
2022-12-16T01:45:33.886Z,64.79
2022-12-16T01:48:49.938Z,65.71
2022-12-16T01:52:05.496Z,65.28
2022-12-16T01:55:21.641Z,65.04
2022-12-16T01:58:34.929Z,64.97
2022-12-16T02:01:43.363Z,66.07
2022-12-16T02:05:01.773Z,65.89
2022-12-16T02:08:16.507Z,65.78
2022-12-16T02:11:53.852Z,66.47
2022-12-16T02:15:31.815Z,66.75
2022-12-16T02:18:58.486Z,66.53
2022-12-16T02:22:37.844Z,65.63
2022-12-16T02:26:32.284Z,67.09
2022-12-16T02:30:10.389Z,67.05
2022-12-16T02:33:48.736Z,66.25
2022-12-16T02:37:16.668Z,65.82
2022-12-16T02:40:35.995Z,66.49
2022-12-16T02:43:58.221Z,65.25
2022-12-16T02:47:04.408Z,66.80
2022-12-16T02:50:24.493Z,65.64
2022-12-16T02:53:34.820Z,66.82
2022-12-16T02:57:05.397Z,67.06
2022-12-16T03:00:16.669Z,66.18
2022-12-16T03:03:32.210Z,66.24
2022-12-16T03:06:50.709Z,67.23
2022-12-16T03:10:02.420Z,67.28
2022-12-16T03:13:14.141Z,67.45
2022-12-16T03:16:27.859Z,67.26
2022-12-16T03:19:35.187Z,67.81
2022-12-16T03:22:51.506Z,67.33
2022-12-16T03:26:10.215Z,67.01
2022-12-16T03:29:27.849Z,67.95
2022-12-16T03:32:44.012Z,66.95
2022-12-16T03:36:01.757Z,67.98
2022-12-16T03:39:13.427Z,67.45
2022-12-16T03:42:19.806Z,66.81
2022-12-16T03:45:33.588Z,67.40
2022-12-16T03:48:39.277Z,66.92
2022-12-16T03:51:45.521Z,67.50
2022-12-16T03:54:53.727Z,67.30
2022-12-16T03:58:00.213Z,67.66
2022-12-16T04:01:05.638Z,66.40
2022-12-16T04:04:12.236Z,67.75
2022-12-16T04:07:24.975Z,67.35
2022-12-16T04:10:49.962Z,67.63
2022-12-16T04:14:10.335Z,67.49
2022-12-16T04:17:33.228Z,67.15
2022-12-16T04:21:01.540Z,67.25
2022-12-16T04:24:24.348Z,67.00
2022-12-16T04:27:32.687Z,68.34
2022-12-16T04:30:39.478Z,66.79
2022-12-16T04:34:00.784Z,67.08
2022-12-16T04:37:22.759Z,67.85
2022-12-16T04:40:43.914Z,66.85
2022-12-16T04:44:13.684Z,66.22
2022-12-16T04:47:35.150Z,65.92
2022-12-16T04:50:57.261Z,66.61
2022-12-16T04:54:18.639Z,66.23
2022-12-16T04:57:40.769Z,65.94
2022-12-16T05:01:07.140Z,66.36
2022-12-16T05:04:29.249Z,65.74
2022-12-16T05:07:50.363Z,66.53
2022-12-16T05:11:12.477Z,66.37
2022-12-16T05:14:33.732Z,66.62
2022-12-16T05:17:58.216Z,66.30
2022-12-16T05:21:21.601Z,66.65
2022-12-16T05:24:46.264Z,65.81
2022-12-16T05:28:12.361Z,66.76
2022-12-16T05:31:34.272Z,66.86
2022-12-16T05:35:03.587Z,66.13
2022-12-16T05:38:25.346Z,66.21
2022-12-16T05:41:46.485Z,66.86
2022-12-16T05:45:08.596Z,66.52
2022-12-16T05:48:29.607Z,67.13
2022-12-16T05:51:54.583Z,66.60
2022-12-16T05:55:16.015Z,67.43
2022-12-16T05:58:38.641Z,67.27
2022-12-16T06:01:59.833Z,66.55
2022-12-16T06:05:21.982Z,66.44
2022-12-16T06:08:45.637Z,66.39
2022-12-16T06:12:08.181Z,66.12
2022-12-16T06:15:30.489Z,66.28
2022-12-16T06:18:52.572Z,66.71
2022-12-16T06:22:14.106Z,66.39
2022-12-16T06:25:38.600Z,66.79
2022-12-16T06:28:59.865Z,66.17
2022-12-16T06:32:27.340Z,66.27
2022-12-16T06:35:49.070Z,66.40
2022-12-16T06:39:11.200Z,66.90
2022-12-16T06:42:35.581Z,65.85
2022-12-16T06:45:57.770Z,65.56
2022-12-16T06:49:19.026Z,65.60
2022-12-16T06:52:40.996Z,66.55
2022-12-16T06:56:02.368Z,66.29
2022-12-16T06:59:27.762Z,65.60
2022-12-16T07:02:49.373Z,65.36
2022-12-16T07:06:12.010Z,66.30
2022-12-16T07:09:33.108Z,66.46
2022-12-16T07:12:55.047Z,65.42
2022-12-16T07:16:19.182Z,64.93
2022-12-16T07:19:41.092Z,65.51
2022-12-16T07:23:09.864Z,66.36
2022-12-16T07:26:35.086Z,66.30
2022-12-16T07:29:56.522Z,66.25
2022-12-16T07:33:20.827Z,65.88
2022-12-16T07:36:42.067Z,66.58
2022-12-16T07:40:04.067Z,65.63
2022-12-16T07:43:24.966Z,66.19
2022-12-16T07:46:58.775Z,66.27
2022-12-16T07:50:23.143Z,65.68
2022-12-16T07:53:46.305Z,66.12
2022-12-16T07:57:07.647Z,65.11
2022-12-16T08:00:30.702Z,66.42
2022-12-16T08:03:51.775Z,66.31
2022-12-16T08:07:18.175Z,66.33
2022-12-16T08:10:39.415Z,65.37
2022-12-16T08:14:01.476Z,65.76
2022-12-16T08:17:37.366Z,65.90
2022-12-16T08:20:59.630Z,64.79
2022-12-16T08:24:23.768Z,66.16
2022-12-16T08:27:45.948Z,64.98
2022-12-16T08:31:09.267Z,65.85
2022-12-16T08:34:31.262Z,66.14
2022-12-16T08:37:52.354Z,66.49
2022-12-16T08:41:18.055Z,65.24
2022-12-16T08:44:39.512Z,66.03
2022-12-16T08:48:09.614Z,65.02
2022-12-16T08:51:33.621Z,65.53
2022-12-16T08:54:55.738Z,65.57
2022-12-16T08:58:32.083Z,65.16
2022-12-16T09:01:53.991Z,65.03
2022-12-16T09:05:16.901Z,65.87
2022-12-16T09:08:38.845Z,65.29
2022-12-16T09:11:59.912Z,64.94
2022-12-16T09:15:25.587Z,64.65
2022-12-16T09:18:46.609Z,64.46
2022-12-16T09:22:08.556Z,64.41
2022-12-16T09:25:30.262Z,63.81
2022-12-16T09:28:52.796Z,63.95
2022-12-16T09:32:16.983Z,64.01
2022-12-16T09:35:38.942Z,64.54
2022-12-16T09:39:00.169Z,65.10
2022-12-16T09:42:52.140Z,64.67
2022-12-16T09:46:37.559Z,65.02
2022-12-16T09:50:08.868Z,65.10
2022-12-16T09:53:37.069Z,64.67
2022-12-16T09:57:01.724Z,65.99
2022-12-16T10:00:35.968Z,65.76
2022-12-16T10:04:00.054Z,65.59
2022-12-16T10:07:35.693Z,64.48
2022-12-16T10:11:18.517Z,65.72
2022-12-16T10:14:52.596Z,65.80
2022-12-16T10:18:18.109Z,65.87
2022-12-16T10:21:51.382Z,64.86
2022-12-16T10:25:32.039Z,64.49
2022-12-16T10:29:05.864Z,63.84
2022-12-16T10:32:44.114Z,65.08
2022-12-16T10:36:12.237Z,64.68
2022-12-16T10:39:48.194Z,64.17
2022-12-16T10:43:35.618Z,64.66
2022-12-16T10:46:58.187Z,64.09
2022-12-16T10:50:19.480Z,64.39
2022-12-16T10:53:46.574Z,64.46
2022-12-16T10:57:23.753Z,64.73
2022-12-16T11:01:04.725Z,62.97
2022-12-16T11:04:52.248Z,63.46
2022-12-16T11:08:18.298Z,64.57
2022-12-16T11:11:45.424Z,64.48
2022-12-16T11:15:28.603Z,64.77
2022-12-16T11:18:53.161Z,63.39
2022-12-16T11:22:31.409Z,63.56
2022-12-16T11:25:53.305Z,63.64
2022-12-16T11:29:34.223Z,63.87
2022-12-16T11:33:01.074Z,63.51
2022-12-16T11:36:36.840Z,63.26
2022-12-16T11:39:59.616Z,63.34
2022-12-16T11:43:25.116Z,63.83
2022-12-16T11:46:48.275Z,63.63
2022-12-16T11:50:13.760Z,63.39
2022-12-16T11:53:52.949Z,63.02
2022-12-16T11:57:21.858Z,64.04
2022-12-16T12:00:42.820Z,64.09
2022-12-16T12:04:09.924Z,64.69
2022-12-16T12:07:55.584Z,64.27
2022-12-16T12:11:37.462Z,63.66
2022-12-16T12:15:11.943Z,63.17
2022-12-16T12:18:52.992Z,64.08
2022-12-16T12:22:28.123Z,63.34
2022-12-16T12:26:04.200Z,63.91
2022-12-16T12:29:42.332Z,63.88
2022-12-16T12:33:31.779Z,64.12
2022-12-16T12:37:05.612Z,63.95
2022-12-16T12:40:46.681Z,63.36
2022-12-16T12:44:36.469Z,63.90
2022-12-16T12:48:23.651Z,63.06
2022-12-16T12:51:56.469Z,64.24
2022-12-16T12:55:50.582Z,63.71
2022-12-16T12:59:32.340Z,63.96
2022-12-16T13:03:11.543Z,65.21
2022-12-16T13:06:35.001Z,65.11
2022-12-16T13:09:58.414Z,65.15
2022-12-16T13:13:48.662Z,64.23
2022-12-16T13:17:25.243Z,64.87
2022-12-16T13:21:03.246Z,64.25
2022-12-16T13:24:54.784Z,64.53
2022-12-16T13:28:16.170Z,64.50
2022-12-16T13:31:40.014Z,64.46
2022-12-16T13:35:01.759Z,64.32
2022-12-16T13:38:39.799Z,64.31
2022-12-16T13:42:17.449Z,64.25
2022-12-16T13:46:00.243Z,63.87
2022-12-16T13:50:03.230Z,64.61
2022-12-16T13:53:31.700Z,63.42
2022-12-16T13:57:00.229Z,63.13
2022-12-16T14:00:36.755Z,62.96
2022-12-16T14:04:05.967Z,63.58
2022-12-16T14:07:29.025Z,63.06
2022-12-16T14:10:58.312Z,62.69
2022-12-16T14:14:32.946Z,62.82
2022-12-16T14:18:23.603Z,63.01
2022-12-16T14:22:00.805Z,63.50
2022-12-16T14:25:31.505Z,63.73
2022-12-16T14:28:59.100Z,64.30
2022-12-16T14:32:20.381Z,63.96
2022-12-16T14:35:46.577Z,64.14
2022-12-16T14:39:08.749Z,64.96
2022-12-16T14:42:41.476Z,63.67
2022-12-16T14:46:09.530Z,64.10
2022-12-16T14:49:43.251Z,63.99
2022-12-16T14:53:04.583Z,64.20
2022-12-16T14:56:38.018Z,64.56
2022-12-16T14:59:59.365Z,63.13
2022-12-16T15:03:38.307Z,64.07
2022-12-16T15:07:05.422Z,64.08
2022-12-16T15:10:34.012Z,63.69
2022-12-16T15:14:01.767Z,63.51
2022-12-16T15:17:35.894Z,63.02
2022-12-16T15:21:10.171Z,64.28
2022-12-16T15:24:39.671Z,63.30
2022-12-16T15:28:00.854Z,64.57
2022-12-16T15:31:33.885Z,63.23
2022-12-16T15:35:05.771Z,64.64
2022-12-16T15:38:46.586Z,64.83
2022-12-16T15:42:10.075Z,64.79
2022-12-16T15:45:42.855Z,63.32
2022-12-16T15:49:11.352Z,62.91
2022-12-16T15:52:55.238Z,63.45
2022-12-16T15:56:19.490Z,64.28
2022-12-16T15:59:49.073Z,63.49
2022-12-16T16:03:10.516Z,63.44
2022-12-16T16:06:40.563Z,63.54
2022-12-16T16:10:02.099Z,64.39
2022-12-16T16:13:28.512Z,64.31
2022-12-16T16:16:50.073Z,63.37
2022-12-16T16:20:12.224Z,64.46
2022-12-16T16:23:34.145Z,63.10
2022-12-16T16:26:56.644Z,64.12
2022-12-16T16:30:29.165Z,63.88
2022-12-16T16:33:56.147Z,64.03
2022-12-16T16:37:18.099Z,63.86
2022-12-16T16:40:52.664Z,64.11
2022-12-16T16:44:11.924Z,64.30
2022-12-16T16:47:39.998Z,64.94
2022-12-16T16:51:00.993Z,64.98
2022-12-16T16:54:23.055Z,64.28
2022-12-16T16:57:50.619Z,64.37
2022-12-16T17:01:12.945Z,65.64
2022-12-16T17:04:36.872Z,64.89
2022-12-16T17:07:58.737Z,65.35
2022-12-16T17:11:20.414Z,64.46
2022-12-16T17:14:42.404Z,64.93
2022-12-16T17:18:03.504Z,64.14
2022-12-16T17:21:29.035Z,65.31
2022-12-16T17:24:53.922Z,65.30
2022-12-16T17:28:16.631Z,65.56
2022-12-16T17:31:37.736Z,64.67
2022-12-16T17:34:59.672Z,64.99
2022-12-16T17:38:23.659Z,65.16
2022-12-16T17:41:48.298Z,65.07
2022-12-16T17:45:09.343Z,64.99
2022-12-16T17:48:32.693Z,65.75
2022-12-16T17:51:53.918Z,64.41
2022-12-16T17:55:18.451Z,65.55
2022-12-16T17:58:39.701Z,65.65
2022-12-16T18:02:02.247Z,65.70
2022-12-16T18:05:24.046Z,65.60
2022-12-16T18:08:46.160Z,65.68
2022-12-16T18:12:10.376Z,66.34
2022-12-16T18:15:32.415Z,65.97
2022-12-16T18:18:54.427Z,65.96
2022-12-16T18:22:16.492Z,66.14
2022-12-16T18:25:37.572Z,66.11
2022-12-16T18:29:02.840Z,65.46
2022-12-16T18:32:24.633Z,66.12
2022-12-16T18:35:58.260Z,66.44
2022-12-16T18:39:19.073Z,66.80
2022-12-16T18:42:40.985Z,66.30
2022-12-16T18:46:13.964Z,66.89
2022-12-16T18:49:36.339Z,66.24
2022-12-16T18:52:57.721Z,67.03
2022-12-16T18:56:21.321Z,67.78
2022-12-16T18:59:42.636Z,66.04
2022-12-16T19:03:07.452Z,66.46
2022-12-16T19:06:29.252Z,66.59
2022-12-16T19:09:51.245Z,67.45
2022-12-16T19:13:14.982Z,67.47
2022-12-16T19:16:37.218Z,67.38
2022-12-16T19:20:01.340Z,67.24
2022-12-16T19:23:23.259Z,67.87
2022-12-16T19:26:44.692Z,67.73
2022-12-16T19:30:06.913Z,67.56
2022-12-16T19:33:27.976Z,67.48
2022-12-16T19:36:53.743Z,68.06
2022-12-16T19:40:14.916Z,68.30
2022-12-16T19:43:37.224Z,67.85
2022-12-16T19:46:58.297Z,67.44
2022-12-16T19:50:21.179Z,67.38
2022-12-16T19:53:45.373Z,68.17
2022-12-16T19:57:07.733Z,68.24
2022-12-16T20:00:31.085Z,67.55
2022-12-16T20:03:54.029Z,67.29
2022-12-16T20:07:23.053Z,67.47
2022-12-16T20:10:48.213Z,68.22
2022-12-16T20:14:13.172Z,67.64
2022-12-16T20:17:35.224Z,67.62
2022-12-16T20:20:56.285Z,66.21
2022-12-16T20:24:18.309Z,66.51
2022-12-16T20:27:42.820Z,66.96
2022-12-16T20:31:04.952Z,67.12
2022-12-16T20:34:28.347Z,67.03
2022-12-16T20:37:51.687Z,67.34
2022-12-16T20:41:17.403Z,67.37
2022-12-16T20:44:42.513Z,67.20
2022-12-16T20:48:03.821Z,67.36
2022-12-16T20:51:40.416Z,68.21
2022-12-16T20:55:01.782Z,68.04
2022-12-16T20:58:24.069Z,67.44
2022-12-16T21:02:21.244Z,67.67
2022-12-16T21:05:30.529Z,67.87
2022-12-16T21:09:04.108Z,68.16
2022-12-16T21:12:26.468Z,68.33
2022-12-16T21:15:47.737Z,67.63
2022-12-16T21:19:12.902Z,68.60
2022-12-16T21:22:33.449Z,68.18
2022-12-16T21:25:58.619Z,67.51
2022-12-16T21:29:19.699Z,68.07
2022-12-16T21:32:44.494Z,67.76
2022-12-16T21:36:13.810Z,68.36
2022-12-16T21:39:50.455Z,67.98
2022-12-16T21:43:11.758Z,67.78
2022-12-16T21:46:33.544Z,68.59
2022-12-16T21:49:56.183Z,68.41
2022-12-16T21:53:20.996Z,68.19
2022-12-16T21:56:42.714Z,68.31
2022-12-16T22:00:04.662Z,69.21
2022-12-16T22:03:32.026Z,68.63
2022-12-16T22:06:54.025Z,69.50
2022-12-16T22:10:19.133Z,68.50
2022-12-16T22:13:41.660Z,69.42
2022-12-16T22:17:05.788Z,69.49
2022-12-16T22:20:29.142Z,68.55
2022-12-16T22:23:50.384Z,69.13
2022-12-16T22:27:16.070Z,69.10
2022-12-16T22:30:37.141Z,69.15
2022-12-16T22:33:59.102Z,68.86
2022-12-16T22:37:20.311Z,69.36
2022-12-16T22:40:42.417Z,69.72
2022-12-16T22:44:06.494Z,68.99
2022-12-16T22:47:28.529Z,69.13
2022-12-16T22:50:51.215Z,69.03
2022-12-16T22:54:13.724Z,69.40
2022-12-16T22:57:34.918Z,69.68
2022-12-16T23:01:12.078Z,69.17
2022-12-16T23:04:33.581Z,68.83
2022-12-16T23:07:55.737Z,68.79
2022-12-16T23:11:33.645Z,68.73
2022-12-16T23:14:56.658Z,68.01
2022-12-16T23:18:20.773Z,67.94
2022-12-16T23:21:42.821Z,68.15
2022-12-16T23:25:03.599Z,67.58
2022-12-16T23:28:25.662Z,67.86
2022-12-16T23:31:46.777Z,68.54
2022-12-16T23:35:11.640Z,67.63
2022-12-16T23:38:32.770Z,67.96
2022-12-16T23:41:54.861Z,67.87
2022-12-16T23:45:17.628Z,67.73
2022-12-16T23:48:39.574Z,67.97
2022-12-16T23:52:03.572Z,67.04
2022-12-16T23:55:26.523Z,67.75
2022-12-16T23:58:47.513Z,66.80
